createdAt,value
2022-10-26T00:03:14.910Z,99.9
2022-10-26T00:08:14.796Z,99.9
2022-10-26T00:13:14.795Z,99.9
2022-10-26T00:18:14.794Z,99.9
2022-10-26T00:23:14.875Z,99.9
2022-10-26T00:28:14.802Z,99.9
2022-10-26T00:33:14.829Z,99.9
2022-10-26T00:38:14.889Z,99.9
2022-10-26T00:43:14.916Z,99.9
2022-10-26T00:48:14.896Z,99.9
2022-10-26T00:53:15.034Z,99.9
2022-10-26T00:58:15.022Z,99.9
2022-10-26T01:03:15.427Z,99.9
2022-10-26T01:08:15.204Z,99.9
2022-10-26T01:13:15.346Z,99.9
2022-10-26T01:18:15.283Z,99.9
2022-10-26T01:23:15.300Z,99.9
2022-10-26T01:28:15.286Z,99.9
2022-10-26T01:33:15.381Z,99.9
2022-10-26T01:38:15.370Z,99.9
2022-10-26T01:43:15.393Z,99.9
2022-10-26T01:48:15.473Z,99.9
2022-10-26T01:53:15.482Z,99.9
2022-10-26T01:58:15.565Z,99.9
2022-10-26T02:03:15.685Z,99.9
2022-10-26T02:08:15.653Z,99.9
2022-10-26T02:13:15.643Z,99.9
2022-10-26T02:18:15.653Z,99.9
2022-10-26T02:23:15.716Z,99.9
2022-10-26T02:28:15.755Z,99.9
2022-10-26T02:33:15.746Z,99.9
2022-10-26T02:38:15.772Z,99.9
2022-10-26T02:43:15.830Z,99.9
2022-10-26T02:48:15.908Z,99.9
2022-10-26T02:53:15.961Z,99.9
2022-10-26T02:58:15.949Z,99.9
2022-10-26T03:03:15.983Z,99.9
2022-10-26T03:08:16.186Z,99.9
2022-10-26T03:13:15.955Z,99.9
2022-10-26T03:18:16.055Z,99.9
2022-10-26T03:23:15.993Z,99.9
2022-10-26T03:28:16.004Z,99.9
2022-10-26T03:33:16.083Z,99.9
2022-10-26T03:38:16.191Z,99.9
2022-10-26T03:43:16.068Z,99.9
2022-10-26T03:48:16.047Z,99.9
2022-10-26T03:53:16.053Z,99.9
2022-10-26T03:58:16.113Z,99.9
2022-10-26T04:03:16.106Z,99.9
2022-10-26T04:08:16.124Z,99.9
2022-10-26T04:13:16.114Z,99.9
2022-10-26T04:18:16.230Z,99.9
2022-10-26T04:23:16.329Z,99.9
2022-10-26T04:28:16.259Z,99.9
2022-10-26T04:33:16.256Z,99.9
2022-10-26T04:38:16.275Z,99.9
2022-10-26T04:43:16.306Z,99.9
2022-10-26T04:48:16.356Z,99.9
2022-10-26T04:53:16.559Z,99.9
2022-10-26T04:58:16.386Z,99.9
2022-10-26T05:03:16.869Z,99.9
2022-10-26T05:08:16.418Z,99.9
2022-10-26T05:13:16.470Z,99.9
2022-10-26T05:18:16.619Z,99.9
2022-10-26T05:23:16.465Z,99.9
2022-10-26T05:28:16.439Z,99.9
2022-10-26T05:33:16.472Z,99.9
2022-10-26T05:38:16.567Z,99.9
2022-10-26T05:43:16.506Z,99.9
2022-10-26T05:48:16.510Z,99.9
2022-10-26T05:53:16.599Z,99.9
2022-10-26T05:58:16.697Z,99.9
2022-10-26T06:03:16.875Z,99.9
2022-10-26T06:08:16.690Z,99.9
2022-10-26T06:13:16.747Z,99.9
2022-10-26T06:18:16.699Z,99.9
2022-10-26T06:23:16.711Z,99.9
2022-10-26T06:28:16.692Z,99.9
2022-10-26T06:33:32.482Z,99.9
2022-10-26T06:38:16.681Z,99.9
2022-10-26T06:43:16.713Z,99.9
2022-10-26T06:48:16.681Z,99.9
2022-10-26T06:53:16.959Z,99.9
2022-10-26T06:58:16.677Z,99.9
2022-10-26T07:03:16.874Z,99.9
2022-10-26T07:08:16.847Z,99.9
2022-10-26T07:13:16.801Z,99.9
2022-10-26T07:18:16.821Z,99.9
2022-10-26T07:23:16.878Z,99.9
2022-10-26T07:28:17.016Z,99.9
2022-10-26T07:33:16.949Z,99.9
2022-10-26T07:38:16.942Z,99.9
2022-10-26T07:43:16.946Z,99.9
2022-10-26T07:48:16.921Z,99.9
2022-10-26T07:53:16.927Z,99.9
2022-10-26T07:58:17.170Z,99.9
2022-10-26T08:03:17.172Z,99.9
2022-10-26T08:08:17.045Z,99.9
2022-10-26T08:13:16.984Z,99.9
2022-10-26T08:18:17.006Z,99.9
2022-10-26T08:23:16.993Z,99.9
2022-10-26T08:28:17.021Z,99.9
2022-10-26T08:33:17.027Z,99.9
2022-10-26T08:38:17.113Z,99.9
2022-10-26T08:43:17.067Z,99.9
2022-10-26T08:48:17.132Z,99.9
2022-10-26T08:53:17.119Z,99.9
2022-10-26T08:58:17.063Z,99.9
2022-10-26T09:03:17.114Z,99.9
2022-10-26T09:08:17.140Z,99.9
2022-10-26T09:13:17.054Z,99.9
2022-10-26T09:18:17.236Z,99.9
2022-10-26T09:23:17.161Z,99.9
2022-10-26T09:28:17.151Z,99.9
2022-10-26T09:33:17.134Z,99.9
2022-10-26T09:38:17.127Z,99.9
2022-10-26T09:43:17.291Z,99.9
2022-10-26T09:48:17.185Z,99.9
2022-10-26T09:53:17.471Z,99.9
2022-10-26T09:58:17.311Z,99.9
2022-10-26T10:03:17.455Z,99.9
2022-10-26T10:08:17.307Z,99.9
2022-10-26T10:13:17.307Z,99.9
2022-10-26T10:18:17.392Z,99.9
2022-10-26T10:23:17.398Z,99.9
2022-10-26T10:28:17.482Z,99.9
2022-10-26T10:33:17.556Z,99.9
2022-10-26T10:38:17.461Z,99.9
2022-10-26T10:43:17.582Z,99.9
2022-10-26T10:48:17.546Z,99.8
2022-10-26T10:53:17.539Z,99.9
2022-10-26T10:58:17.684Z,99.9
2022-10-26T11:03:20.006Z,99.6
2022-10-26T11:08:17.538Z,97.8
2022-10-26T11:13:17.528Z,98
2022-10-26T11:18:17.539Z,97.4
2022-10-26T11:23:17.551Z,99
2022-10-26T11:28:17.627Z,98
2022-10-26T11:33:17.658Z,94.5
2022-10-26T11:38:20.724Z,94.8
2022-10-26T11:43:17.896Z,95
2022-10-26T11:48:17.890Z,91.7
2022-10-26T11:53:17.847Z,90.5
2022-10-26T11:58:17.853Z,91.8
2022-10-26T12:03:17.946Z,90.5
2022-10-26T12:08:17.851Z,90.9
2022-10-26T12:13:17.856Z,88.2
2022-10-26T12:18:20.243Z,87.1
2022-10-26T12:23:22.942Z,84.7
2022-10-26T12:28:17.896Z,80.3
2022-10-26T12:33:17.846Z,79.5
2022-10-26T12:38:17.837Z,80.2
2022-10-26T12:43:17.874Z,76.6
2022-10-26T12:48:27.442Z,75.6
2022-10-26T12:53:17.843Z,75.5
2022-10-26T12:58:17.849Z,73.4
2022-10-26T13:03:17.907Z,72.9
2022-10-26T13:08:17.952Z,74.4
2022-10-26T13:13:18.068Z,73
2022-10-26T13:18:18.130Z,71.9
2022-10-26T13:23:18.155Z,71
2022-10-26T13:28:18.098Z,71
2022-10-26T13:33:18.079Z,70.1
2022-10-26T13:38:18.090Z,69.2
2022-10-26T13:43:18.291Z,68.9
2022-10-26T13:48:18.102Z,67.4
2022-10-26T13:53:18.110Z,67.3
2022-10-26T13:58:18.333Z,66.3
2022-10-26T14:03:18.356Z,66
2022-10-26T14:08:18.325Z,66.6
2022-10-26T14:13:18.326Z,66.6
2022-10-26T14:18:18.337Z,67.4
2022-10-26T14:23:18.370Z,67.7
2022-10-26T14:28:18.318Z,67.9
2022-10-26T14:33:18.385Z,68.1
2022-10-26T14:38:18.398Z,68.6
2022-10-26T14:43:18.529Z,68.9
2022-10-26T14:48:18.858Z,69.5
2022-10-26T14:53:18.656Z,69.9
2022-10-26T14:58:18.685Z,70.1
2022-10-26T15:03:18.666Z,69.6
2022-10-26T15:08:23.697Z,69.5
2022-10-26T15:13:18.698Z,69.7
2022-10-26T15:18:18.985Z,70.2
2022-10-26T15:23:18.765Z,71.3
2022-10-26T15:28:19.006Z,72
2022-10-26T15:33:18.834Z,72.7
2022-10-26T15:38:18.842Z,73.3
2022-10-26T15:43:18.992Z,73.8
2022-10-26T15:48:19.271Z,74.2
2022-10-26T15:53:19.022Z,74.5
2022-10-26T15:58:19.047Z,74.9
2022-10-26T16:03:19.079Z,75.1
2022-10-26T16:08:19.020Z,75.5
2022-10-26T16:13:19.056Z,75.8
2022-10-26T16:18:19.189Z,76.4
2022-10-26T16:23:19.095Z,76.8
2022-10-26T16:28:19.234Z,77.9
2022-10-26T16:33:19.234Z,78.3
2022-10-26T16:38:19.226Z,79.3
2022-10-26T16:43:19.244Z,80.1
2022-10-26T16:48:19.249Z,81.3
2022-10-26T16:53:19.244Z,82
2022-10-26T16:58:19.249Z,82.4
2022-10-26T17:03:19.274Z,83.2
2022-10-26T17:08:19.278Z,84.2
2022-10-26T17:13:19.250Z,85
2022-10-26T17:18:19.286Z,86.1
2022-10-26T17:23:19.339Z,86.7
2022-10-26T17:28:19.291Z,87.5
2022-10-26T17:33:19.428Z,88.2
2022-10-26T17:38:19.457Z,88.6
2022-10-26T17:43:19.536Z,89.2
2022-10-26T17:48:19.402Z,89.9
2022-10-26T17:53:19.359Z,90
2022-10-26T17:58:19.458Z,90.2
2022-10-26T18:03:19.482Z,90.4
2022-10-26T18:08:19.462Z,90.8
2022-10-26T18:13:19.248Z,91.1
2022-10-26T18:18:19.255Z,91.7
2022-10-26T18:23:19.286Z,92.3
2022-10-26T18:28:19.257Z,92.4
2022-10-26T18:33:19.251Z,93
2022-10-26T18:38:19.251Z,93.1
2022-10-26T18:43:19.254Z,93.6
2022-10-26T18:48:19.240Z,94
2022-10-26T18:58:19.227Z,94.7
2022-10-26T19:03:19.262Z,95.1
2022-10-26T19:08:19.229Z,95.3
2022-10-26T19:13:19.462Z,95.9
2022-10-26T19:18:19.242Z,96.4
2022-10-26T19:23:19.489Z,96.7
2022-10-26T19:28:19.247Z,96.6
2022-10-26T19:33:19.264Z,96.7
2022-10-26T19:38:19.263Z,96.9
2022-10-26T19:43:19.358Z,97.2
2022-10-26T19:48:19.354Z,97.6
2022-10-26T19:53:19.354Z,97.7
2022-10-26T19:58:19.335Z,98.1
2022-10-26T20:03:19.372Z,98.3
2022-10-26T20:08:19.345Z,98.6
2022-10-26T20:13:19.360Z,98.9
2022-10-26T20:18:19.339Z,99.1
2022-10-26T20:23:19.579Z,99.2
2022-10-26T20:28:19.327Z,98.8
2022-10-26T20:33:19.617Z,99.6
2022-10-26T20:38:19.592Z,99.5
2022-10-26T20:43:19.629Z,99.6
2022-10-26T20:48:19.599Z,99.9
2022-10-26T20:53:19.590Z,99.9
2022-10-26T20:58:19.778Z,99.9
2022-10-26T21:03:19.621Z,99.9
2022-10-26T21:08:19.736Z,99.9
2022-10-26T21:13:19.953Z,99.9
2022-10-26T21:18:19.698Z,99.9
2022-10-26T21:23:44.040Z,99.9
2022-10-26T21:28:43.984Z,99.9
2022-10-26T21:33:44.010Z,99.9
2022-10-26T21:38:43.998Z,99.9
2022-10-26T21:43:44.102Z,99.9
2022-10-26T21:48:43.952Z,99.9
2022-10-26T21:53:43.885Z,99.9
2022-10-26T21:58:43.918Z,99.9
2022-10-26T22:03:43.963Z,99.9
2022-10-26T22:08:43.935Z,99.9
2022-10-26T22:13:43.910Z,99.9
2022-10-26T22:18:43.959Z,99.9
2022-10-26T22:23:43.919Z,99.9
2022-10-26T22:28:43.920Z,99.9
2022-10-26T22:33:43.914Z,99.9
2022-10-26T22:38:43.920Z,99.9
2022-10-26T22:43:43.909Z,99.9
2022-10-26T22:48:43.916Z,99.9
2022-10-26T22:53:43.883Z,99.9
2022-10-26T22:58:43.933Z,99.9
2022-10-26T23:03:43.936Z,99.9
2022-10-26T23:08:43.922Z,99.9
2022-10-26T23:13:43.890Z,99.9
2022-10-26T23:18:44.001Z,99.9
2022-10-26T23:23:43.945Z,99.9
2022-10-26T23:28:43.914Z,99.9
2022-10-26T23:33:43.914Z,99.9
2022-10-26T23:38:43.932Z,99.9
2022-10-26T23:43:43.935Z,99.9
2022-10-26T23:48:43.920Z,99.9
2022-10-26T23:53:43.928Z,99.9
2022-10-26T23:58:43.946Z,99.9
